sensor_id;sensor_type;location;lat;lon;timestamp;pressure;altitude;pressure_sealevel;temperature;humidity
53270;BME280;39159;45.634;9.420;2023-01-30T00:01:39;99526.19;;;0.04;100.00
53270;BME280;39159;45.634;9.420;2023-01-30T00:04:05;99534.50;;;0.03;100.00
53270;BME280;39159;45.634;9.420;2023-01-30T00:06:31;99522.19;;;-0.05;100.00
53270;BME280;39159;45.634;9.420;2023-01-30T00:08:56;99519.50;;;-0.05;100.00
53270;BME280;39159;45.634;9.420;2023-01-30T00:11:22;99512.94;;;-0.09;100.00
53270;BME280;39159;45.634;9.420;2023-01-30T00:13:48;99515.19;;;-0.06;100.00
53270;BME280;39159;45.634;9.420;2023-01-30T00:16:14;99519.81;;;-0.13;100.00
53270;BME280;39159;45.634;9.420;2023-01-30T00:18:40;99506.03;;;-0.17;100.00
53270;BME280;39159;45.634;9.420;2023-01-30T00:21:10;99511.47;;;-0.24;100.00
53270;BME280;39159;45.634;9.420;2023-01-30T00:23:36;99501.63;;;-0.30;100.00
53270;BME280;39159;45.634;9.420;2023-01-30T00:26:03;99504.91;;;-0.28;100.00
53270;BME280;39159;45.634;9.420;2023-01-30T00:28:29;99501.25;;;-0.33;100.00
53270;BME280;39159;45.634;9.420;2023-01-30T00:30:55;99497.97;;;-0.35;100.00
53270;BME280;39159;45.634;9.420;2023-01-30T00:33:21;99507.06;;;-0.36;100.00
53270;BME280;39159;45.634;9.420;2023-01-30T00:35:49;99494.09;;;-0.39;100.00
53270;BME280;39159;45.634;9.420;2023-01-30T00:38:15;99495.97;;;-0.40;100.00
53270;BME280;39159;45.634;9.420;2023-01-30T00:40:41;99494.69;;;-0.37;100.00
53270;BME280;39159;45.634;9.420;2023-01-30T00:43:10;99496.72;;;-0.33;100.00
53270;BME280;39159;45.634;9.420;2023-01-30T00:45:54;99489.94;;;-0.35;100.00
53270;BME280;39159;45.634;9.420;2023-01-30T00:48:39;99488.00;;;-0.47;100.00
53270;BME280;39159;45.634;9.420;2023-01-30T00:51:04;99481.06;;;-0.54;100.00
53270;BME280;39159;45.634;9.420;2023-01-30T00:53:30;99479.03;;;-0.59;100.00
53270;BME280;39159;45.634;9.420;2023-01-30T00:55:55;99477.84;;;-0.63;100.00
53270;BME280;39159;45.634;9.420;2023-01-30T00:58:22;99476.81;;;-0.62;100.00
53270;BME280;39159;45.634;9.420;2023-01-30T01:00:48;99474.81;;;-0.67;100.00
53270;BME280;39159;45.634;9.420;2023-01-30T01:03:14;99470.25;;;-0.66;100.00
53270;BME280;39159;45.634;9.420;2023-01-30T01:05:39;99478.88;;;-0.64;100.00
53270;BME280;39159;45.634;9.420;2023-01-30T01:08:05;99471.88;;;-0.65;100.00
53270;BME280;39159;45.634;9.420;2023-01-30T01:10:31;99467.72;;;-0.61;100.00
53270;BME280;39159;45.634;9.420;2023-01-30T01:12:56;99464.97;;;-0.54;100.00
53270;BME280;39159;45.634;9.420;2023-01-30T01:15:23;99466.03;;;-0.55;100.00
53270;BME280;39159;45.634;9.420;2023-01-30T01:17:50;99466.44;;;-0.58;100.00
53270;BME280;39159;45.634;9.420;2023-01-30T01:20:17;99466.44;;;-0.58;100.00
53270;BME280;39159;45.634;9.420;2023-01-30T01:22:42;99461.69;;;-0.56;100.00
53270;BME280;39159;45.634;9.420;2023-01-30T01:25:09;99469.13;;;-0.58;100.00
53270;BME280;39159;45.634;9.420;2023-01-30T01:27:35;99466.75;;;-0.67;100.00
53270;BME280;39159;45.634;9.420;2023-01-30T01:30:00;99470.97;;;-0.77;100.00
53270;BME280;39159;45.634;9.420;2023-01-30T01:32:26;99458.25;;;-0.82;100.00
53270;BME280;39159;45.634;9.420;2023-01-30T01:34:51;99460.09;;;-0.82;100.00
53270;BME280;39159;45.634;9.420;2023-01-30T01:37:17;99456.97;;;-0.79;100.00
53270;BME280;39159;45.634;9.420;2023-01-30T01:39:42;99455.56;;;-0.82;100.00
53270;BME280;39159;45.634;9.420;2023-01-30T01:42:29;99455.25;;;-0.92;100.00
53270;BME280;39159;45.634;9.420;2023-01-30T01:47:26;99447.41;;;-0.94;100.00
53270;BME280;39159;45.634;9.420;2023-01-30T01:49:52;99441.84;;;-0.92;100.00
53270;BME280;39159;45.634;9.420;2023-01-30T01:52:17;99439.75;;;-0.90;100.00
53270;BME280;39159;45.634;9.420;2023-01-30T01:54:47;99442.00;;;-0.87;100.00
53270;BME280;39159;45.634;9.420;2023-01-30T01:57:17;99441.78;;;-0.86;100.00
53270;BME280;39159;45.634;9.420;2023-01-30T01:59:49;99437.69;;;-0.88;100.00
53270;BME280;39159;45.634;9.420;2023-01-30T02:02:16;99444.66;;;-0.87;100.00
53270;BME280;39159;45.634;9.420;2023-01-30T02:04:47;99443.41;;;-0.85;100.00
53270;BME280;39159;45.634;9.420;2023-01-30T02:07:44;99444.19;;;-0.77;100.00
53270;BME280;39159;45.634;9.420;2023-01-30T02:10:16;99450.75;;;-0.73;100.00
53270;BME280;39159;45.634;9.420;2023-01-30T02:12:42;99444.13;;;-0.71;100.00
53270;BME280;39159;45.634;9.420;2023-01-30T02:15:09;99448.34;;;-0.63;100.00
53270;BME280;39159;45.634;9.420;2023-01-30T02:17:35;99448.72;;;-0.59;100.00
53270;BME280;39159;45.634;9.420;2023-01-30T02:20:19;99448.88;;;-0.54;100.00
53270;BME280;39159;45.634;9.420;2023-01-30T02:31:03;99433.53;;;-0.47;100.00
53270;BME280;39159;45.634;9.420;2023-01-30T02:45:24;99413.56;;;-0.88;100.00
53270;BME280;39159;45.634;9.420;2023-01-30T02:47:59;99404.25;;;-0.86;100.00
53270;BME280;39159;45.634;9.420;2023-01-30T02:50:36;99398.69;;;-0.84;100.00
53270;BME280;39159;45.634;9.420;2023-01-30T02:53:05;99389.00;;;-0.85;100.00
53270;BME280;39159;45.634;9.420;2023-01-30T02:55:31;99391.25;;;-0.82;100.00
53270;BME280;39159;45.634;9.420;2023-01-30T02:57:56;99393.53;;;-0.86;100.00
53270;BME280;39159;45.634;9.420;2023-01-30T03:00:47;99394.38;;;-0.85;100.00
53270;BME280;39159;45.634;9.420;2023-01-30T03:11:48;99373.09;;;-0.80;100.00
53270;BME280;39159;45.634;9.420;2023-01-30T03:14:26;99378.00;;;-0.77;100.00
53270;BME280;39159;45.634;9.420;2023-01-30T03:16:55;99381.69;;;-0.78;100.00
53270;BME280;39159;45.634;9.420;2023-01-30T03:19:22;99364.47;;;-0.82;100.00
53270;BME280;39159;45.634;9.420;2023-01-30T03:21:47;99371.81;;;-0.77;100.00
53270;BME280;39159;45.634;9.420;2023-01-30T03:24:13;99368.31;;;-0.78;100.00
53270;BME280;39159;45.634;9.420;2023-01-30T03:26:43;99366.28;;;-1.01;100.00
53270;BME280;39159;45.634;9.420;2023-01-30T03:29:11;99364.94;;;-1.10;100.00
53270;BME280;39159;45.634;9.420;2023-01-30T03:31:36;99358.19;;;-1.13;100.00
53270;BME280;39159;45.634;9.420;2023-01-30T03:34:01;99353.84;;;-1.14;100.00
53270;BME280;39159;45.634;9.420;2023-01-30T03:36:27;99354.25;;;-1.10;100.00
53270;BME280;39159;45.634;9.420;2023-01-30T03:38:52;99342.03;;;-1.06;100.00
53270;BME280;39159;45.634;9.420;2023-01-30T03:41:18;99340.56;;;-1.02;100.00
53270;BME280;39159;45.634;9.420;2023-01-30T03:43:43;99340.91;;;-0.98;100.00
53270;BME280;39159;45.634;9.420;2023-01-30T03:46:09;99324.84;;;-0.98;100.00
53270;BME280;39159;45.634;9.420;2023-01-30T03:48:34;99336.97;;;-0.96;100.00
53270;BME280;39159;45.634;9.420;2023-01-30T03:50:59;99331.41;;;-0.94;100.00
53270;BME280;39159;45.634;9.420;2023-01-30T03:53:25;99327.91;;;-0.95;100.00
53270;BME280;39159;45.634;9.420;2023-01-30T03:55:50;99328.41;;;-1.05;100.00
53270;BME280;39159;45.634;9.420;2023-01-30T03:58:15;99332.59;;;-1.09;100.00
53270;BME280;39159;45.634;9.420;2023-01-30T04:00:41;99326.94;;;-1.19;100.00
53270;BME280;39159;45.634;9.420;2023-01-30T04:03:06;99320.38;;;-1.23;100.00
53270;BME280;39159;45.634;9.420;2023-01-30T04:05:32;99332.13;;;-1.24;100.00
53270;BME280;39159;45.634;9.420;2023-01-30T04:07:57;99320.59;;;-1.25;100.00
53270;BME280;39159;45.634;9.420;2023-01-30T04:10:23;99305.34;;;-1.24;100.00
53270;BME280;39159;45.634;9.420;2023-01-30T04:12:49;99305.13;;;-1.22;100.00
53270;BME280;39159;45.634;9.420;2023-01-30T04:15:15;99302.69;;;-1.24;100.00
53270;BME280;39159;45.634;9.420;2023-01-30T04:17:42;99293.16;;;-1.20;100.00
53270;BME280;39159;45.634;9.420;2023-01-30T04:20:08;99297.94;;;-1.22;100.00
53270;BME280;39159;45.634;9.420;2023-01-30T04:22:33;99296.06;;;-1.21;100.00
53270;BME280;39159;45.634;9.420;2023-01-30T04:24:59;99296.13;;;-1.28;100.00
53270;BME280;39159;45.634;9.420;2023-01-30T04:27:24;99283.75;;;-1.29;100.00
53270;BME280;39159;45.634;9.420;2023-01-30T04:29:49;99276.56;;;-1.29;100.00
53270;BME280;39159;45.634;9.420;2023-01-30T04:32:15;99286.69;;;-1.31;100.00
53270;BME280;39159;45.634;9.420;2023-01-30T04:34:40;99275.72;;;-1.29;100.00
53270;BME280;39159;45.634;9.420;2023-01-30T04:37:08;99271.44;;;-1.30;100.00
53270;BME280;39159;45.634;9.420;2023-01-30T04:39:33;99267.47;;;-1.28;100.00
53270;BME280;39159;45.634;9.420;2023-01-30T04:41:58;99269.34;;;-1.28;100.00
53270;BME280;39159;45.634;9.420;2023-01-30T04:44:24;99273.50;;;-1.32;100.00
53270;BME280;39159;45.634;9.420;2023-01-30T04:46:49;99280.94;;;-1.34;100.00
53270;BME280;39159;45.634;9.420;2023-01-30T04:49:14;99273.97;;;-1.35;100.00
53270;BME280;39159;45.634;9.420;2023-01-30T04:51:40;99273.50;;;-1.32;100.00
53270;BME280;39159;45.634;9.420;2023-01-30T04:54:05;99284.69;;;-1.35;100.00
53270;BME280;39159;45.634;9.420;2023-01-30T04:56:31;99285.03;;;-1.32;100.00
53270;BME280;39159;45.634;9.420;2023-01-30T04:58:56;99284.81;;;-1.30;100.00
53270;BME280;39159;45.634;9.420;2023-01-30T05:01:24;99287.50;;;-1.30;100.00
53270;BME280;39159;45.634;9.420;2023-01-30T05:03:51;99288.75;;;-1.33;100.00
53270;BME280;39159;45.634;9.420;2023-01-30T05:06:17;99290.03;;;-1.35;100.00
53270;BME280;39159;45.634;9.420;2023-01-30T05:08:42;99291.66;;;-1.34;100.00
53270;BME280;39159;45.634;9.420;2023-01-30T05:11:08;99294.13;;;-1.33;100.00
53270;BME280;39159;45.634;9.420;2023-01-30T05:13:33;99294.25;;;-1.09;100.00
53270;BME280;39159;45.634;9.420;2023-01-30T05:15:59;99286.53;;;-0.50;100.00
53270;BME280;39159;45.634;9.420;2023-01-30T05:18:24;99282.88;;;-0.26;100.00
53270;BME280;39159;45.634;9.420;2023-01-30T05:20:49;99277.09;;;-0.11;100.00
53270;BME280;39159;45.634;9.420;2023-01-30T05:23:15;99275.72;;;-0.02;100.00
53270;BME280;39159;45.634;9.420;2023-01-30T05:25:40;99275.34;;;-0.05;100.00
53270;BME280;39159;45.634;9.420;2023-01-30T05:28:06;99278.00;;;-0.17;100.00
53270;BME280;39159;45.634;9.420;2023-01-30T05:30:31;99277.78;;;-0.15;100.00
53270;BME280;39159;45.634;9.420;2023-01-30T05:32:57;99270.56;;;-0.15;100.00
53270;BME280;39159;45.634;9.420;2023-01-30T05:35:23;99276.03;;;-0.10;100.00
53270;BME280;39159;45.634;9.420;2023-01-30T05:37:51;99252.84;;;-0.04;100.00
53270;BME280;39159;45.634;9.420;2023-01-30T05:40:17;99249.94;;;0.09;100.00
53270;BME280;39159;45.634;9.420;2023-01-30T05:42:42;99252.03;;;0.19;100.00
53270;BME280;39159;45.634;9.420;2023-01-30T05:45:08;99259.38;;;0.35;100.00
53270;BME280;39159;45.634;9.420;2023-01-30T05:47:34;99267.78;;;0.15;100.00
53270;BME280;39159;45.634;9.420;2023-01-30T05:49:59;99276.94;;;-0.16;100.00
53270;BME280;39159;45.634;9.420;2023-01-30T05:52:25;99270.66;;;-0.22;100.00
53270;BME280;39159;45.634;9.420;2023-01-30T05:54:50;99259.69;;;-0.20;100.00
53270;BME280;39159;45.634;9.420;2023-01-30T05:57:16;99270.16;;;-0.30;100.00
53270;BME280;39159;45.634;9.420;2023-01-30T05:59:41;99261.75;;;-0.34;100.00
53270;BME280;39159;45.634;9.420;2023-01-30T06:02:06;99263.00;;;-0.48;100.00
53270;BME280;39159;45.634;9.420;2023-01-30T06:04:32;99268.84;;;-0.70;100.00
53270;BME280;39159;45.634;9.420;2023-01-30T06:06:57;99266.47;;;-0.78;100.00
53270;BME280;39159;45.634;9.420;2023-01-30T06:09:22;99266.63;;;-0.91;100.00
53270;BME280;39159;45.634;9.420;2023-01-30T06:11:48;99268.16;;;-0.95;100.00
53270;BME280;39159;45.634;9.420;2023-01-30T06:14:16;99259.75;;;-0.99;100.00
53270;BME280;39159;45.634;9.420;2023-01-30T06:16:41;99256.00;;;-0.98;100.00
53270;BME280;39159;45.634;9.420;2023-01-30T06:19:07;99265.22;;;-0.94;100.00
53270;BME280;39159;45.634;9.420;2023-01-30T06:21:32;99255.13;;;-0.92;100.00
53270;BME280;39159;45.634;9.420;2023-01-30T06:23:58;99237.69;;;-0.82;100.00
53270;BME280;39159;45.634;9.420;2023-01-30T06:26:23;99247.63;;;-0.71;100.00
53270;BME280;39159;45.634;9.420;2023-01-30T06:28:49;99270.50;;;-0.69;100.00
53270;BME280;39159;45.634;9.420;2023-01-30T06:31:14;99262.31;;;-0.74;100.00
53270;BME280;39159;45.634;9.420;2023-01-30T06:33:40;99251.06;;;-0.64;100.00
53270;BME280;39159;45.634;9.420;2023-01-30T06:36:06;99262.63;;;-0.52;100.00
53270;BME280;39159;45.634;9.420;2023-01-30T06:38:31;99270.66;;;-0.52;100.00
53270;BME280;39159;45.634;9.420;2023-01-30T06:40:57;99261.81;;;-0.52;100.00
53270;BME280;39159;45.634;9.420;2023-01-30T06:43:22;99257.06;;;-0.38;100.00
53270;BME280;39159;45.634;9.420;2023-01-30T06:45:47;99265.50;;;-0.35;100.00
53270;BME280;39159;45.634;9.420;2023-01-30T06:48:13;99270.63;;;-0.33;100.00
53270;BME280;39159;45.634;9.420;2023-01-30T06:50:38;99276.31;;;-0.42;100.00
53270;BME280;39159;45.634;9.420;2023-01-30T06:53:05;99265.38;;;-0.40;100.00
53270;BME280;39159;45.634;9.420;2023-01-30T06:55:32;99267.56;;;-0.37;100.00
53270;BME280;39159;45.634;9.420;2023-01-30T06:58:10;99265.56;;;0.12;100.00
53270;BME280;39159;45.634;9.420;2023-01-30T07:00:38;99264.28;;;0.03;100.00
53270;BME280;39159;45.634;9.420;2023-01-30T07:03:14;99273.13;;;-0.08;100.00
53270;BME280;39159;45.634;9.420;2023-01-30T07:05:41;99273.69;;;-0.18;100.00
53270;BME280;39159;45.634;9.420;2023-01-30T07:08:06;99277.53;;;-0.26;100.00
53270;BME280;39159;45.634;9.420;2023-01-30T07:10:32;99266.41;;;-0.29;100.00
53270;BME280;39159;45.634;9.420;2023-01-30T07:12:58;99266.78;;;-0.26;100.00
53270;BME280;39159;45.634;9.420;2023-01-30T07:15:24;99266.19;;;-0.28;100.00
53270;BME280;39159;45.634;9.420;2023-01-30T07:17:49;99273.88;;;-0.31;100.00
53270;BME280;39159;45.634;9.420;2023-01-30T07:20:14;99277.63;;;-0.32;100.00
53270;BME280;39159;45.634;9.420;2023-01-30T07:22:40;99268.50;;;-0.31;100.00
53270;BME280;39159;45.634;9.420;2023-01-30T07:25:06;99259.34;;;-0.24;100.00
53270;BME280;39159;45.634;9.420;2023-01-30T07:27:32;99247.69;;;-0.17;100.00
53270;BME280;39159;45.634;9.420;2023-01-30T07:29:57;99261.22;;;-0.12;100.00
53270;BME280;39159;45.634;9.420;2023-01-30T07:32:23;99268.69;;;-0.14;100.00
53270;BME280;39159;45.634;9.420;2023-01-30T07:34:48;99253.41;;;-0.14;100.00
53270;BME280;39159;45.634;9.420;2023-01-30T07:37:14;99245.50;;;-0.09;100.00
53270;BME280;39159;45.634;9.420;2023-01-30T07:39:40;99233.81;;;-0.03;100.00
53270;BME280;39159;45.634;9.420;2023-01-30T07:42:05;99226.72;;;0.03;100.00
53270;BME280;39159;45.634;9.420;2023-01-30T07:44:31;99242.00;;;0.03;100.00
53270;BME280;39159;45.634;9.420;2023-01-30T07:46:58;99256.72;;;0.00;100.00
53270;BME280;39159;45.634;9.420;2023-01-30T07:49:23;99260.31;;;-0.06;100.00
53270;BME280;39159;45.634;9.420;2023-01-30T07:51:49;99260.53;;;-0.08;100.00
53270;BME280;39159;45.634;9.420;2023-01-30T07:54:15;99268.47;;;-0.13;100.00
53270;BME280;39159;45.634;9.420;2023-01-30T07:56:40;99287.78;;;-0.23;100.00
53270;BME280;39159;45.634;9.420;2023-01-30T07:59:06;99284.97;;;-0.28;100.00
53270;BME280;39159;45.634;9.420;2023-01-30T08:01:32;99278.09;;;-0.24;100.00
53270;BME280;39159;45.634;9.420;2023-01-30T08:03:57;99274.63;;;-0.24;100.00
53270;BME280;39159;45.634;9.420;2023-01-30T08:06:23;99271.59;;;-0.16;100.00
53270;BME280;39159;45.634;9.420;2023-01-30T08:08:48;99270.13;;;0.00;100.00
53270;BME280;39159;45.634;9.420;2023-01-30T08:11:14;99249.72;;;0.23;100.00
53270;BME280;39159;45.634;9.420;2023-01-30T08:13:39;99255.19;;;0.63;100.00
53270;BME280;39159;45.634;9.420;2023-01-30T08:16:06;99256.84;;;0.40;100.00
53270;BME280;39159;45.634;9.420;2023-01-30T08:18:32;99251.31;;;0.82;100.00
53270;BME280;39159;45.634;9.420;2023-01-30T08:20:59;99243.09;;;1.01;100.00
53270;BME280;39159;45.634;9.420;2023-01-30T08:23:24;99244.13;;;1.00;100.00
53270;BME280;39159;45.634;9.420;2023-01-30T08:26:00;99243.03;;;1.13;100.00
53270;BME280;39159;45.634;9.420;2023-01-30T08:28:26;99248.53;;;1.18;100.00
53270;BME280;39159;45.634;9.420;2023-01-30T08:30:52;99252.25;;;1.17;100.00
53270;BME280;39159;45.634;9.420;2023-01-30T08:33:18;99251.44;;;1.16;99.75
53270;BME280;39159;45.634;9.420;2023-01-30T08:35:44;99249.44;;;1.52;99.01
53270;BME280;39159;45.634;9.420;2023-01-30T08:38:10;99251.16;;;1.58;97.31
53270;BME280;39159;45.634;9.420;2023-01-30T08:40:35;99247.63;;;1.58;98.01
53270;BME280;39159;45.634;9.420;2023-01-30T08:43:01;99242.53;;;1.73;97.17
53270;BME280;39159;45.634;9.420;2023-01-30T08:45:27;99233.03;;;1.82;95.69
53270;BME280;39159;45.634;9.420;2023-01-30T08:47:53;99228.59;;;2.10;95.88
53270;BME280;39159;45.634;9.420;2023-01-30T08:50:21;99233.47;;;2.30;93.63
53270;BME280;39159;45.634;9.420;2023-01-30T08:52:46;99241.63;;;2.35;93.05
53270;BME280;39159;45.634;9.420;2023-01-30T08:55:12;99238.34;;;2.50;92.68
53270;BME280;39159;45.634;9.420;2023-01-30T08:57:37;99225.22;;;2.54;89.93
53270;BME280;39159;45.634;9.420;2023-01-30T09:00:04;99223.75;;;2.46;91.02
53270;BME280;39159;45.634;9.420;2023-01-30T09:02:29;99220.06;;;2.52;92.10
53270;BME280;39159;45.634;9.420;2023-01-30T09:04:55;99217.59;;;2.67;91.36
53270;BME280;39159;45.634;9.420;2023-01-30T09:07:20;99220.97;;;2.80;91.12
53270;BME280;39159;45.634;9.420;2023-01-30T09:09:46;99249.44;;;2.93;92.12
53270;BME280;39159;45.634;9.420;2023-01-30T09:12:12;99239.97;;;2.90;90.95
53270;BME280;39159;45.634;9.420;2023-01-30T09:14:38;99243.91;;;2.82;91.87
53270;BME280;39159;45.634;9.420;2023-01-30T09:17:03;99245.97;;;2.75;93.62
53270;BME280;39159;45.634;9.420;2023-01-30T09:19:29;99231.88;;;2.90;94.29
53270;BME280;39159;45.634;9.420;2023-01-30T09:21:55;99223.47;;;3.08;92.54
53270;BME280;39159;45.634;9.420;2023-01-30T09:24:21;99218.28;;;3.29;90.95
53270;BME280;39159;45.634;9.420;2023-01-30T09:26:52;99220.66;;;3.47;88.20
53270;BME280;39159;45.634;9.420;2023-01-30T09:29:17;99220.22;;;3.88;87.39
53270;BME280;39159;45.634;9.420;2023-01-30T09:31:43;99225.75;;;4.41;86.80
53270;BME280;39159;45.634;9.420;2023-01-30T09:34:08;99233.00;;;4.83;80.78
53270;BME280;39159;45.634;9.420;2023-01-30T09:36:34;99224.91;;;4.88;76.43
53270;BME280;39159;45.634;9.420;2023-01-30T09:38:59;99221.78;;;5.27;76.89
53270;BME280;39159;45.634;9.420;2023-01-30T09:41:38;99221.56;;;5.49;73.72
53270;BME280;39159;45.634;9.420;2023-01-30T09:46:48;99202.16;;;6.03;68.00
53270;BME280;39159;45.634;9.420;2023-01-30T09:51:57;99180.41;;;6.54;65.40
53270;BME280;39159;45.634;9.420;2023-01-30T09:54:33;99171.63;;;6.78;65.87
53270;BME280;39159;45.634;9.420;2023-01-30T09:57:15;99170.25;;;6.85;64.56
53270;BME280;39159;45.634;9.420;2023-01-30T10:00:05;99164.56;;;6.87;65.62
53270;BME280;39159;45.634;9.420;2023-01-30T10:02:49;99160.28;;;7.25;63.43
53270;BME280;39159;45.634;9.420;2023-01-30T10:05:17;99151.47;;;7.44;62.68
53270;BME280;39159;45.634;9.420;2023-01-30T10:10:49;99159.53;;;7.88;61.26
53270;BME280;39159;45.634;9.420;2023-01-30T10:16:40;99161.53;;;8.07;60.53
53270;BME280;39159;45.634;9.420;2023-01-30T10:27:46;99167.84;;;8.61;54.02
53270;BME280;39159;45.634;9.420;2023-01-30T10:30:15;99149.63;;;8.32;51.93
53270;BME280;39159;45.634;9.420;2023-01-30T10:32:44;99128.25;;;8.49;52.32
53270;BME280;39159;45.634;9.420;2023-01-30T10:35:22;99132.34;;;8.47;52.08
53270;BME280;39159;45.634;9.420;2023-01-30T10:38:26;99126.38;;;8.69;52.87
53270;BME280;39159;45.634;9.420;2023-01-30T10:40:53;99113.69;;;8.83;53.06
53270;BME280;39159;45.634;9.420;2023-01-30T10:43:26;99103.03;;;9.06;53.11
53270;BME280;39159;45.634;9.420;2023-01-30T10:54:00;99084.38;;;9.51;51.73
53270;BME280;39159;45.634;9.420;2023-01-30T10:56:29;99069.84;;;9.55;50.29
53270;BME280;39159;45.634;9.420;2023-01-30T11:01:43;99060.84;;;9.88;51.50
53270;BME280;39159;45.634;9.420;2023-01-30T11:06:47;99044.63;;;9.96;50.24
53270;BME280;39159;45.634;9.420;2023-01-30T11:09:13;99036.53;;;10.19;49.79
53270;BME280;39159;45.634;9.420;2023-01-30T11:11:52;99024.31;;;10.58;47.45
53270;BME280;39159;45.634;9.420;2023-01-30T11:14:18;99012.00;;;10.61;46.35
53270;BME280;39159;45.634;9.420;2023-01-30T11:16:52;99004.06;;;10.73;46.36
53270;BME280;39159;45.634;9.420;2023-01-30T11:19:21;98991.97;;;10.51;45.73
53270;BME280;39159;45.634;9.420;2023-01-30T11:21:58;98988.47;;;10.73;45.80
53270;BME280;39159;45.634;9.420;2023-01-30T11:24:44;98991.78;;;10.48;45.69
53270;BME280;39159;45.634;9.420;2023-01-30T11:27:27;98975.50;;;10.56;46.17
53270;BME280;39159;45.634;9.420;2023-01-30T11:30:26;98986.97;;;10.81;45.21
53270;BME280;39159;45.634;9.420;2023-01-30T11:33:15;98980.03;;;10.61;45.38
53270;BME280;39159;45.634;9.420;2023-01-30T11:41:00;98951.91;;;10.97;44.76
53270;BME280;39159;45.634;9.420;2023-01-30T11:43:27;98957.13;;;11.07;45.08
53270;BME280;39159;45.634;9.420;2023-01-30T11:45:53;98941.78;;;11.51;44.12
53270;BME280;39159;45.634;9.420;2023-01-30T11:48:22;98930.88;;;11.60;43.97
53270;BME280;39159;45.634;9.420;2023-01-30T11:50:54;98937.88;;;11.75;43.22
53270;BME280;39159;45.634;9.420;2023-01-30T11:53:38;98934.88;;;11.94;42.84
53270;BME280;39159;45.634;9.420;2023-01-30T11:56:05;98933.78;;;11.95;42.24
53270;BME280;39159;45.634;9.420;2023-01-30T11:58:34;98925.03;;;11.84;42.19
53270;BME280;39159;45.634;9.420;2023-01-30T12:01:01;98910.03;;;11.33;42.80
53270;BME280;39159;45.634;9.420;2023-01-30T12:03:27;98918.44;;;11.45;43.72
53270;BME280;39159;45.634;9.420;2023-01-30T12:05:54;98915.72;;;10.91;44.07
53270;BME280;39159;45.634;9.420;2023-01-30T12:08:35;98927.16;;;11.25;44.44
53270;BME280;39159;45.634;9.420;2023-01-30T12:11:01;98944.16;;;10.90;45.20
53270;BME280;39159;45.634;9.420;2023-01-30T12:13:34;98937.31;;;11.02;45.61
53270;BME280;39159;45.634;9.420;2023-01-30T12:22:12;98898.28;;;11.32;44.45
53270;BME280;39159;45.634;9.420;2023-01-30T12:32:57;98842.88;;;10.33;46.90
53270;BME280;39159;45.634;9.420;2023-01-30T12:35:52;98834.72;;;10.55;47.25
53270;BME280;39159;45.634;9.420;2023-01-30T12:41:09;98850.63;;;11.16;44.88
53270;BME280;39159;45.634;9.420;2023-01-30T12:44:35;98836.56;;;11.31;44.24
53270;BME280;39159;45.634;9.420;2023-01-30T12:50:04;98826.00;;;10.98;44.06
53270;BME280;39159;45.634;9.420;2023-01-30T12:52:53;98816.03;;;11.34;43.78
53270;BME280;39159;45.634;9.420;2023-01-30T13:00:23;98822.84;;;11.14;44.46
53270;BME280;39159;45.634;9.420;2023-01-30T13:08:53;98800.09;;;10.65;44.65
53270;BME280;39159;45.634;9.420;2023-01-30T13:11:44;98806.16;;;10.84;43.44
53270;BME280;39159;45.634;9.420;2023-01-30T13:14:33;98797.66;;;10.86;43.79
53270;BME280;39159;45.634;9.420;2023-01-30T13:17:28;98787.69;;;10.81;43.54
53270;BME280;39159;45.634;9.420;2023-01-30T13:27:57;98762.66;;;10.56;45.10
53270;BME280;39159;45.634;9.420;2023-01-30T13:30:24;98760.19;;;10.77;45.00
53270;BME280;39159;45.634;9.420;2023-01-30T13:32:55;98752.34;;;10.85;44.87
53270;BME280;39159;45.634;9.420;2023-01-30T13:35:29;98759.88;;;10.79;45.40
53270;BME280;39159;45.634;9.420;2023-01-30T13:37:56;98758.34;;;10.64;45.82
53270;BME280;39159;45.634;9.420;2023-01-30T13:40:26;98766.09;;;10.71;46.44
53270;BME280;39159;45.634;9.420;2023-01-30T13:43:00;98760.38;;;10.50;46.45
53270;BME280;39159;45.634;9.420;2023-01-30T13:45:32;98741.97;;;10.33;46.27
53270;BME280;39159;45.634;9.420;2023-01-30T13:53:55;98741.19;;;10.64;45.65
53270;BME280;39159;45.634;9.420;2023-01-30T14:09:36;98710.81;;;10.56;46.74
53270;BME280;39159;45.634;9.420;2023-01-30T14:12:04;98722.84;;;10.55;47.01
53270;BME280;39159;45.634;9.420;2023-01-30T14:14:33;98734.28;;;10.35;47.28
53270;BME280;39159;45.634;9.420;2023-01-30T14:17:14;98724.16;;;10.35;47.87
53270;BME280;39159;45.634;9.420;2023-01-30T14:19:44;98727.88;;;10.17;47.45
53270;BME280;39159;45.634;9.420;2023-01-30T14:27:48;98703.06;;;9.60;49.20
53270;BME280;39159;45.634;9.420;2023-01-30T14:32:55;98709.56;;;9.50;49.42
53270;BME280;39159;45.634;9.420;2023-01-30T14:35:24;98716.16;;;9.21;50.08
53270;BME280;39159;45.634;9.420;2023-01-30T14:37:51;98702.34;;;9.18;50.60
53270;BME280;39159;45.634;9.420;2023-01-30T14:40:30;98693.91;;;8.91;52.64
53270;BME280;39159;45.634;9.420;2023-01-30T14:45:50;98690.59;;;8.95;52.70
53270;BME280;39159;45.634;9.420;2023-01-30T14:48:29;98702.09;;;8.91;53.53
53270;BME280;39159;45.634;9.420;2023-01-30T14:51:21;98710.84;;;8.88;53.58
53270;BME280;39159;45.634;9.420;2023-01-30T14:54:17;98697.94;;;8.80;54.52
53270;BME280;39159;45.634;9.420;2023-01-30T14:56:52;98693.91;;;8.64;55.83
53270;BME280;39159;45.634;9.420;2023-01-30T15:07:46;98708.38;;;8.45;58.32
53270;BME280;39159;45.634;9.420;2023-01-30T15:18:51;98703.97;;;8.17;61.61
53270;BME280;39159;45.634;9.420;2023-01-30T15:26:58;98686.72;;;8.07;63.37
53270;BME280;39159;45.634;9.420;2023-01-30T15:32:21;98694.53;;;7.95;64.16
53270;BME280;39159;45.634;9.420;2023-01-30T15:35:11;98688.91;;;7.92;64.67
53270;BME280;39159;45.634;9.420;2023-01-30T15:50:50;98695.97;;;7.74;67.92
53270;BME280;39159;45.634;9.420;2023-01-30T15:53:24;98699.34;;;7.65;69.07
53270;BME280;39159;45.634;9.420;2023-01-30T15:55:52;98699.44;;;7.60;69.14
53270;BME280;39159;45.634;9.420;2023-01-30T15:58:19;98705.66;;;7.61;69.71
53270;BME280;39159;45.634;9.420;2023-01-30T16:00:48;98705.81;;;7.51;70.33
53270;BME280;39159;45.634;9.420;2023-01-30T16:03:20;98703.69;;;7.47;71.03
53270;BME280;39159;45.634;9.420;2023-01-30T16:05:50;98717.03;;;7.44;70.51